Time;durP1;ratioP1;P1;durP2;ratioP2;P2;SDS_P1;SDS_P2;PMS_P1;PMS_P2;Temp;Humidity;BMP_temperature;BMP_pressure;BME280_temperature;BME280_humidity;BME280_pressure;Samples;Min_cycle;Max_cycle;Signal;HPM_P1;HPM_P2
2021/09/05 00:00:04;;;;;;;;;;;;;;;16.14;62.99;97031.06;30001;982;1876;-61
2021/09/05 00:00:35;;;;;;;;;;;;;;;16.11;63.32;97039.91;30001;982;1880;-60
2021/09/05 00:01:06;;;;;;;;;;;;;;;16.09;63.09;97041.03;30001;982;1876;-59
2021/09/05 00:01:37;;;;;;;;;;;;;;;16.09;63.37;97043.78;30001;982;1880;-61
2021/09/05 00:02:08;;;;;;;;;;;;;;;16.08;63.25;97046.84;30001;983;1875;-60
2021/09/05 00:02:39;;;;;;;;;;;;;;;16.08;63.55;97053.13;30001;983;1879;-60
2021/09/05 00:03:10;;;;;;;;;;;;;;;16.07;63.32;97035.09;30001;983;1875;-60
2021/09/05 00:03:41;;;;;;;;;;;;;;;16.08;63.36;97042.16;30001;983;1862;-59
2021/09/05 00:04:12;;;;;;;;;;;;;;;16.08;63.29;97044.91;30001;983;1871;-60
2021/09/05 00:04:43;;;;;;;;;;;;;;;16.08;63.68;97047.66;30001;983;1879;-59
2021/09/05 00:05:14;;;;;;;;;;;;;;;16.07;63.56;97040.56;30001;983;1875;-60
2021/09/05 00:05:45;;;;;;;;;;;;;;;16.07;63.77;97034.28;30001;983;1880;-60
2021/09/05 00:06:16;;;;;;;;;;;;;;;16.07;63.52;97040.56;30001;983;1875;-59
2021/09/05 00:06:47;;;;;;;;;;;;;;;16.06;63.88;97038.94;30001;982;1880;-60
2021/09/05 00:07:20;;;;;;;;;;;;;;;16.05;63.74;97033.81;30001;982;1875;-60
2021/09/05 00:07:50;;;;;;;;;;;;;;;16.04;63.61;97038.47;30001;982;1880;-59
2021/09/05 00:08:21;;;;;;;;;;;;;;;16.03;63.71;97039.59;30001;982;1875;-61
2021/09/05 00:08:53;;;;;;;;;;;;;;;16.03;64.14;97045.06;30001;982;1862;-61
2021/09/05 00:09:23;;;;;;;;;;;;;;;16.02;64.00;97038.00;30001;983;1870;-59
2021/09/05 00:09:54;;;;;;;;;;;;;;;16.01;63.79;97035.56;30001;983;1879;-63
2021/09/05 00:10:25;;;;;;;;;;;;;;;16.01;63.94;97041.06;30001;983;1875;-59
2021/09/05 00:10:56;;;;;;;;;;;;;;;16.01;64.05;97041.06;30001;983;1879;-61
2021/09/05 00:11:27;;;;;;;;;;;;;;;15.99;64.10;97041.38;30001;983;1875;-59
2021/09/05 00:11:57;;;;;;;;;;;;;;;15.97;64.05;97038.16;30001;983;1879;-60
2021/09/05 00:12:31;;;;;;;;;;;;;;;15.97;64.09;97037.34;30001;983;1875;-59
2021/09/05 00:13:03;;;;;;;;;;;;;;;15.94;64.13;97036.06;30001;983;1862;-60
2021/09/05 00:13:35;;;;;;;;;;;;;;;15.94;64.20;97041.53;30001;983;1871;-61
2021/09/05 00:14:06;;;;;;;;;;;;;;;15.92;64.49;97043.81;30001;983;1880;-59
2021/09/05 00:14:37;;;;;;;;;;;;;;;15.90;64.23;97035.13;30001;982;1875;-59
2021/09/05 00:15:09;;;;;;;;;;;;;;;15.90;64.30;97039.78;30001;982;1880;-60
2021/09/05 00:15:40;;;;;;;;;;;;;;;15.88;64.71;97042.06;30001;982;1876;-60
2021/09/05 00:16:11;;;;;;;;;;;;;;;15.86;64.63;97036.91;30001;982;1880;-60
2021/09/05 00:16:42;;;;;;;;;;;;;;;15.86;64.59;97045.09;30001;982;1876;-60
2021/09/05 00:17:13;;;;;;;;;;;;;;;15.85;64.77;97039.97;30001;983;1879;-60
2021/09/05 00:17:45;;;;;;;;;;;;;;;15.84;64.90;97036.41;30001;983;1857;-59
2021/09/05 00:18:17;;;;;;;;;;;;;;;15.82;65.00;97041.41;30001;983;1875;-60
2021/09/05 00:18:48;;;;;;;;;;;;;;;15.83;64.68;97045.75;30001;983;1875;-61
2021/09/05 00:19:19;;;;;;;;;;;;;;;15.81;65.16;97037.06;30001;983;1879;-59
2021/09/05 00:19:50;;;;;;;;;;;;;;;15.78;64.87;97032.22;30001;983;1875;-60
2021/09/05 00:20:21;;;;;;;;;;;;;;;15.80;65.12;97040.12;30001;983;1880;-59
2021/09/05 00:20:52;;;;;;;;;;;;;;;15.79;65.11;97039.31;30001;983;1858;-59
2021/09/05 00:21:22;;;;;;;;;;;;;;;15.79;65.27;97039.31;30001;982;1875;-60
2021/09/05 00:21:54;;;;;;;;;;;;;;;15.78;65.41;97034.16;30001;982;1875;-60
2021/09/05 00:22:25;;;;;;;;;;;;;;;15.77;65.35;97038.81;30001;982;1880;-60
2021/09/05 00:22:56;;;;;;;;;;;;;;;15.75;65.29;97032.88;30001;982;1876;-60
2021/09/05 00:23:27;;;;;;;;;;;;;;;15.74;65.43;97042.19;30001;982;1880;-60
2021/09/05 00:23:59;;;;;;;;;;;;;;;15.72;65.15;97031.59;30001;986;1866;-61
2021/09/05 00:24:31;;;;;;;;;;;;;;;15.73;65.64;97032.38;30001;983;1879;-60
2021/09/05 00:25:05;;;;;;;;;;;;;;;15.71;65.62;97040.12;30001;983;1875;-60
2021/09/05 00:25:35;;;;;;;;;;;;;;;15.70;65.73;97035.75;30001;983;1879;-61
2021/09/05 00:26:06;;;;;;;;;;;;;;;15.70;65.62;97041.22;30001;983;1857;-60
2021/09/05 00:26:37;;;;;;;;;;;;;;;15.69;65.66;97031.41;30001;983;1875;-61
2021/09/05 00:27:08;;;;;;;;;;;;;;;15.68;65.96;97027.87;30001;983;1875;-59
2021/09/05 00:27:39;;;;;;;;;;;;;;;15.67;66.03;97030.94;30001;983;1880;-60
2021/09/05 00:28:10;;;;;;;;;;;;;;;15.67;65.87;97031.75;30001;983;1875;-60
2021/09/05 00:28:41;;;;;;;;;;;;;;;15.66;66.18;97034.78;30001;982;1880;-60
2021/09/05 00:29:12;;;;;;;;;;;;;;;15.64;65.86;97026.91;30001;982;1875;-59
2021/09/05 00:29:43;;;;;;;;;;;;;;;15.62;66.12;97028.34;30001;982;1880;-60
2021/09/05 00:30:14;;;;;;;;;;;;;;;15.62;65.96;97031.09;30001;982;1876;-59
2021/09/05 00:30:44;;;;;;;;;;;;;;;15.60;66.45;97027.87;30001;982;1880;-60
2021/09/05 00:31:15;;;;;;;;;;;;;;;15.60;65.91;97030.59;30001;982;1858;-60
2021/09/05 00:31:46;;;;;;;;;;;;;;;15.58;66.61;97030.16;30001;982;1875;-59
2021/09/05 00:32:17;;;;;;;;;;;;;;;15.58;66.34;97032.88;30001;983;1875;-60
2021/09/05 00:32:48;;;;;;;;;;;;;;;15.57;66.59;97031.28;30001;983;1879;-60
2021/09/05 00:33:19;;;;;;;;;;;;;;;15.56;66.56;97029.63;30001;983;1875;-60
2021/09/05 00:33:50;;;;;;;;;;;;;;;15.55;66.62;97030.75;30001;983;1879;-59
2021/09/05 00:34:22;;;;;;;;;;;;;;;15.54;66.72;97027.22;30001;983;1875;-59
2021/09/05 00:34:53;;;;;;;;;;;;;;;15.54;66.92;97031.88;30001;983;1880;-60
2021/09/05 00:35:24;;;;;;;;;;;;;;;15.52;66.64;97034.94;30001;983;1875;-60
2021/09/05 00:35:56;;;;;;;;;;;;;;;15.52;66.75;97028.66;30001;983;1862;-59
2021/09/05 00:36:27;;;;;;;;;;;;;;;15.50;67.01;97031.72;30001;982;1871;-60
2021/09/05 00:36:58;;;;;;;;;;;;;;;15.51;67.14;97027.06;30001;982;1880;-59
2021/09/05 00:37:29;;;;;;;;;;;;;;;15.50;66.98;97036.37;30001;982;1876;-60
2021/09/05 00:38:00;;;;;;;;;;;;;;;15.50;67.05;97031.72;30001;982;1880;-60
2021/09/05 00:38:31;;;;;;;;;;;;;;;15.50;66.96;97025.44;30001;982;1876;-59
2021/09/05 00:39:04;;;;;;;;;;;;;;;15.49;67.45;97021.91;30001;982;1880;-60
2021/09/05 00:39:36;;;;;;;;;;;;;;;15.48;67.01;97027.69;30001;983;1875;-60
2021/09/05 00:40:07;;;;;;;;;;;;;;;15.48;67.46;97033.16;30001;983;1879;-60
2021/09/05 00:40:38;;;;;;;;;;;;;;;15.46;67.25;97024.47;30001;983;1875;-59
2021/09/05 00:41:09;;;;;;;;;;;;;;;15.47;67.52;97031.56;30001;983;1862;-59
2021/09/05 00:41:40;;;;;;;;;;;;;;;15.44;67.36;97019.31;30001;983;1871;-59
2021/09/05 00:42:11;;;;;;;;;;;;;;;15.44;68.07;97024.78;30001;983;1880;-60
2021/09/05 00:42:42;;;;;;;;;;;;;;;15.41;67.83;97026.25;30001;983;1875;-60
2021/09/05 00:43:13;;;;;;;;;;;;;;;15.42;67.83;97029.78;30001;983;1880;-61
2021/09/05 00:43:51;;;;;;;;;;;;;;;15.40;67.87;97027.38;30001;982;1875;-60
2021/09/05 00:44:22;;;;;;;;;;;;;;;15.39;67.79;97023.03;30001;982;1880;-60
2021/09/05 00:44:54;;;;;;;;;;;;;;;15.38;67.77;97017.88;30001;982;1814;-60
2021/09/05 00:45:25;;;;;;;;;;;;;;;15.36;67.83;97037.31;30001;982;1880;-61
2021/09/05 00:45:56;;;;;;;;;;;;;;;15.36;67.44;97028.31;30001;982;1876;-60
2021/09/05 00:46:29;;;;;;;;;;;;;;;15.36;67.45;97033.78;30001;982;1863;-60
2021/09/05 00:47:00;;;;;;;;;;;;;;;15.34;67.70;97031.38;30001;982;1871;-60
2021/09/05 00:47:31;;;;;;;;;;;;;;;15.33;67.63;97032.50;30001;983;1879;-58
2021/09/05 00:48:02;;;;;;;;;;;;;;;15.32;67.81;97030.88;30001;983;1857;-60
2021/09/05 00:48:33;;;;;;;;;;;;;;;15.31;67.90;97029.28;30001;983;1875;-59
2021/09/05 00:49:06;;;;;;;;;;;;;;;15.29;67.80;97031.53;30001;983;1875;-60
2021/09/05 00:49:36;;;;;;;;;;;;;;;15.28;67.79;97032.66;30001;983;1880;-59
2021/09/05 00:50:08;;;;;;;;;;;;;;;15.28;68.46;97035.37;30001;983;1875;-59
2021/09/05 00:50:42;;;;;;;;;;;;;;;15.25;67.76;97030.53;30001;983;1880;-59
2021/09/05 00:51:12;;;;;;;;;;;;;;;15.25;67.91;97033.28;30001;982;1875;-59
2021/09/05 00:51:44;;;;;;;;;;;;;;;15.24;67.91;97034.44;30001;982;1880;-60
2021/09/05 00:52:16;;;;;;;;;;;;;;;15.23;68.26;97038.28;30001;982;1876;-60
2021/09/05 00:52:47;;;;;;;;;;;;;;;15.21;68.27;97032.34;30001;982;1880;-59
2021/09/05 00:53:18;;;;;;;;;;;;;;;15.19;68.33;97037.31;30001;982;1858;-59
2021/09/05 00:53:53;;;;;;;;;;;;;;;15.19;68.65;97037.31;30001;983;1875;-59
2021/09/05 00:54:24;;;;;;;;;;;;;;;15.16;69.33;97032.47;30001;983;1875;-60
2021/09/05 00:54:55;;;;;;;;;;;;;;;15.15;69.44;97035.53;30001;983;1862;-61
2021/09/05 00:55:26;;;;;;;;;;;;;;;15.11;69.73;97035.37;30001;983;1871;-60
2021/09/05 00:55:57;;;;;;;;;;;;;;;15.11;69.15;97035.37;30001;983;1862;-60
2021/09/05 00:56:32;;;;;;;;;;;;;;;15.09;69.44;97035.69;30001;983;1871;-61
2021/09/05 00:57:03;;;;;;;;;;;;;;;15.08;70.21;97036.00;30001;983;1879;-60
2021/09/05 00:57:34;;;;;;;;;;;;;;;15.06;69.41;97038.25;30001;974;1895;-60
2021/09/05 00:58:08;;;;;;;;;;;;;;;15.05;69.60;97031.16;30001;983;1880;-59
2021/09/05 00:58:41;;;;;;;;;;;;;;;15.05;70.04;97042.09;30001;983;1875;-60
2021/09/05 00:59:22;;;;;;;;;;;;;;;15.02;70.45;97038.06;30001;982;1880;-59
2021/09/05 00:59:54;;;;;;;;;;;;;;;15.00;69.58;97039.50;30001;982;1876;-60
2021/09/05 01:00:25;;;;;;;;;;;;;;;15.00;70.39;97028.56;30001;982;1880;-60
2021/09/05 01:00:57;;;;;;;;;;;;;;;14.98;69.85;97031.62;30001;982;1858;-59
2021/09/05 01:01:29;;;;;;;;;;;;;;;14.98;69.97;97036.28;30001;983;1875;-60
2021/09/05 01:02:00;;;;;;;;;;;;;;;14.96;69.91;97030.34;30001;983;1875;-61
2021/09/05 01:02:33;;;;;;;;;;;;;;;14.96;70.03;97041.25;30001;983;1879;-59
2021/09/05 01:03:04;;;;;;;;;;;;;;;14.95;70.12;97028.72;30001;983;1875;-60
2021/09/05 01:03:35;;;;;;;;;;;;;;;14.94;71.10;97035.31;30001;983;1879;-60
2021/09/05 01:04:06;;;;;;;;;;;;;;;14.92;71.04;97038.34;30001;983;1875;-60
2021/09/05 01:04:37;;;;;;;;;;;;;;;14.91;70.32;97036.75;30001;983;1880;-60
2021/09/05 01:05:09;;;;;;;;;;;;;;;14.92;70.64;97043.00;30001;983;1875;-59
2021/09/05 01:05:40;;;;;;;;;;;;;;;14.91;70.18;97035.94;30001;983;1862;-62
2021/09/05 01:06:11;;;;;;;;;;;;;;;14.90;70.04;97039.81;30001;983;1871;-60
2021/09/05 01:06:43;;;;;;;;;;;;;;;14.89;70.31;97038.22;30001;982;1880;-60
2021/09/05 01:07:14;;;;;;;;;;;;;;;14.88;70.17;97042.06;30001;982;1876;-59
2021/09/05 01:07:45;;;;;;;;;;;;;;;14.87;70.34;97041.25;30001;982;1880;-60
2021/09/05 01:08:16;;;;;;;;;;;;;;;14.86;70.43;97039.66;30001;982;1876;-60
2021/09/05 01:08:48;;;;;;;;;;;;;;;14.85;70.11;97040.78;30001;982;1880;-60
2021/09/05 01:09:19;;;;;;;;;;;;;;;14.84;70.69;97041.88;30001;983;1789;-58
2021/09/05 01:09:50;;;;;;;;;;;;;;;14.82;70.79;97035.94;30001;983;1879;-60
2021/09/05 01:10:21;;;;;;;;;;;;;;;14.81;70.69;97037.06;30001;983;1875;-60
2021/09/05 01:10:53;;;;;;;;;;;;;;;14.82;70.23;97035.13;30001;983;1862;-59
2021/09/05 01:11:24;;;;;;;;;;;;;;;14.81;70.56;97042.53;30001;983;1871;-60
2021/09/05 01:11:59;;;;;;;;;;;;;;;14.82;70.84;97040.59;30001;983;1879;-59
2021/09/05 01:12:30;;;;;;;;;;;;;;;14.82;70.91;97037.88;30001;983;1858;-60
2021/09/05 01:13:01;;;;;;;;;;;;;;;14.81;70.96;97042.53;30001;983;1875;-61
2021/09/05 01:13:33;;;;;;;;;;;;;;;14.81;71.45;97041.72;30001;983;1875;-60
2021/09/05 01:14:04;;;;;;;;;;;;;;;14.79;71.79;97038.50;30001;982;1880;-61
2021/09/05 01:14:36;;;;;;;;;;;;;;;14.77;70.99;97029.81;30001;982;1875;-59
2021/09/05 01:15:07;;;;;;;;;;;;;;;14.75;71.84;97033.66;30001;982;1880;-60
2021/09/05 01:15:38;;;;;;;;;;;;;;;14.75;71.03;97039.13;30001;982;1876;-59
2021/09/05 01:16:29;;;;;;;;;;;;;;;14.75;71.23;97035.59;30001;982;1880;-60
2021/09/05 01:17:01;;;;;;;;;;;;;;;14.73;72.46;97035.91;30001;983;1875;-59
2021/09/05 01:17:37;;;;;;;;;;;;;;;14.72;71.63;97039.75;30001;983;1862;-59
2021/09/05 01:18:08;;;;;;;;;;;;;;;14.68;73.60;97038.75;30001;983;1871;-62
2021/09/05 01:18:39;;;;;;;;;;;;;;;14.67;73.35;97036.34;30001;983;1879;-60
2021/09/05 01:19:12;;;;;;;;;;;;;;;14.65;72.89;97033.94;30001;983;1875;-60
2021/09/05 01:19:43;;;;;;;;;;;;;;;14.64;72.68;97036.97;30001;983;1880;-60
2021/09/05 01:20:14;;;;;;;;;;;;;;;14.64;72.48;97040.50;30001;983;1858;-60
2021/09/05 01:20:45;;;;;;;;;;;;;;;14.62;72.73;97037.28;30001;983;1875;-60
2021/09/05 01:21:16;;;;;;;;;;;;;;;14.62;73.10;97033.75;30001;983;1875;-60
2021/09/05 01:21:49;;;;;;;;;;;;;;;14.60;73.14;97038.72;30001;982;1880;-60
2021/09/05 01:22:21;;;;;;;;;;;;;;;14.59;72.48;97040.66;30001;982;1858;-59
2021/09/05 01:22:52;;;;;;;;;;;;;;;14.59;72.64;97035.19;30001;982;1876;-60
2021/09/05 01:23:23;;;;;;;;;;;;;;;14.59;72.58;97040.66;30001;982;1876;-59
2021/09/05 01:23:54;;;;;;;;;;;;;;;14.58;72.02;97038.22;30001;982;1880;-60
2021/09/05 01:24:25;;;;;;;;;;;;;;;14.59;72.23;97035.19;30001;983;1875;-60
2021/09/05 01:24:56;;;;;;;;;;;;;;;14.59;72.49;97037.91;30001;983;1862;-60
2021/09/05 01:25:27;;;;;;;;;;;;;;;14.61;72.29;97038.41;30001;983;1871;-58
2021/09/05 01:25:58;;;;;;;;;;;;;;;14.61;72.44;97038.41;30001;983;1879;-58
2021/09/05 01:26:30;;;;;;;;;;;;;;;14.61;72.39;97038.41;30001;983;1875;-60
2021/09/05 01:27:01;;;;;;;;;;;;;;;14.60;72.09;97039.53;30001;983;1879;-59
2021/09/05 01:27:32;;;;;;;;;;;;;;;14.61;72.07;97035.69;30001;983;1875;-59
2021/09/05 01:28:07;;;;;;;;;;;;;;;14.62;72.09;97041.94;30001;983;1880;-60
2021/09/05 01:28:41;;;;;;;;;;;;;;;14.61;72.09;97038.41;30001;982;1858;-59
2021/09/05 01:29:13;;;;;;;;;;;;;;;14.61;72.18;97043.87;30001;982;1858;-58
2021/09/05 01:29:44;;;;;;;;;;;;;;;14.61;72.11;97054.00;30001;982;1875;-60
2021/09/05 01:30:15;;;;;;;;;;;;;;;14.60;71.81;97041.44;30001;982;1880;-58
2021/09/05 01:30:46;;;;;;;;;;;;;;;14.60;72.12;97041.44;30001;982;1876;-59
2021/09/05 01:31:17;;;;;;;;;;;;;;;14.58;71.78;97039.03;30001;982;1880;-60
2021/09/05 01:31:49;;;;;;;;;;;;;;;14.58;72.18;97036.31;30001;983;1875;-60
2021/09/05 01:32:21;;;;;;;;;;;;;;;14.57;72.10;97037.41;30001;983;1862;-60
2021/09/05 01:32:52;;;;;;;;;;;;;;;14.58;72.12;97039.03;30001;983;1871;-59
2021/09/05 01:33:22;;;;;;;;;;;;;;;14.59;72.04;97037.91;30001;983;1879;-61
2021/09/05 01:33:53;;;;;;;;;;;;;;;14.60;72.07;97047.72;30001;983;1779;-60
2021/09/05 01:34:24;;;;;;;;;;;;;;;14.61;72.05;97038.41;30001;983;1879;-59
2021/09/05 01:34:55;;;;;;;;;;;;;;;14.61;72.08;97038.41;30001;983;1875;-60
2021/09/05 01:35:27;;;;;;;;;;;;;;;14.62;72.04;97045.47;30001;983;1880;-59
2021/09/05 01:35:58;;;;;;;;;;;;;;;14.61;71.85;97043.87;30001;982;1875;-59
2021/09/05 01:36:29;;;;;;;;;;;;;;;14.61;71.84;97046.59;30001;982;1880;-60
2021/09/05 01:37:00;;;;;;;;;;;;;;;14.61;71.99;97038.41;30001;982;1777;-59
2021/09/05 01:37:31;;;;;;;;;;;;;;;14.62;72.15;97048.22;30001;982;1862;-59
2021/09/05 01:38:02;;;;;;;;;;;;;;;14.62;72.16;97050.94;30001;982;1854;-60
2021/09/05 01:38:34;;;;;;;;;;;;;;;14.61;72.06;97041.13;30001;982;1880;-60
2021/09/05 01:39:05;;;;;;;;;;;;;;;14.59;72.08;97043.37;30001;983;1875;-60
2021/09/05 01:39:37;;;;;;;;;;;;;;;14.58;72.10;97049.97;30001;983;1862;-60
2021/09/05 01:40:09;;;;;;;;;;;;;;;14.57;72.01;97040.16;30001;983;1871;-59
2021/09/05 01:40:40;;;;;;;;;;;;;;;14.54;72.07;97038.09;30001;983;1879;-59
2021/09/05 01:41:11;;;;;;;;;;;;;;;14.55;71.81;97045.16;30001;983;1875;-60
2021/09/05 01:41:43;;;;;;;;;;;;;;;14.56;72.14;97045.94;30001;983;1880;-60
2021/09/05 01:42:13;;;;;;;;;;;;;;;14.56;72.30;97041.28;30001;983;1875;-60
2021/09/05 01:42:44;;;;;;;;;;;;;;;14.56;72.28;97054.94;30001;983;1880;-61
2021/09/05 01:43:17;;;;;;;;;;;;;;;14.57;72.12;97053.81;30001;982;1875;-60
2021/09/05 01:43:47;;;;;;;;;;;;;;;14.56;72.37;97052.19;30001;986;1880;-59
2021/09/05 01:44:23;;;;;;;;;;;;;;;14.56;72.20;97049.47;30001;982;1876;-60
2021/09/05 01:44:54;;;;;;;;;;;;;;;14.57;72.49;97056.53;30001;982;1862;-60
2021/09/05 01:45:25;;;;;;;;;;;;;;;14.56;71.98;97049.47;30001;982;1871;-61
2021/09/05 01:45:56;;;;;;;;;;;;;;;14.55;72.12;97050.63;30001;982;1880;-60
2021/09/05 01:46:28;;;;;;;;;;;;;;;14.55;72.37;97050.63;30001;982;1876;-60
2021/09/05 01:46:58;;;;;;;;;;;;;;;14.54;72.04;97051.72;30001;983;1879;-60
2021/09/05 01:47:29;;;;;;;;;;;;;;;14.54;72.06;97045.47;30001;983;1875;-60
2021/09/05 01:48:00;;;;;;;;;;;;;;;14.54;72.24;97048.19;30001;983;1879;-60
2021/09/05 01:48:31;;;;;;;;;;;;;;;14.52;72.59;97048.50;30001;983;1875;-63
2021/09/05 01:49:02;;;;;;;;;;;;;;;14.52;72.46;97050.44;30001;983;1879;-60
2021/09/05 01:49:33;;;;;;;;;;;;;;;14.51;72.14;97051.56;30001;983;1858;-60
2021/09/05 01:50:04;;;;;;;;;;;;;;;14.49;72.04;97046.41;30001;983;1777;-60
2021/09/05 01:50:35;;;;;;;;;;;;;;;14.48;72.42;97044.78;30001;983;1875;-60
2021/09/05 01:51:06;;;;;;;;;;;;;;;14.48;72.28;97044.00;30001;982;1880;-61
2021/09/05 01:51:37;;;;;;;;;;;;;;;14.47;72.65;97045.91;30001;982;1876;-59
2021/09/05 01:52:08;;;;;;;;;;;;;;;14.48;72.56;97052.19;30001;982;1880;-61
2021/09/05 01:52:39;;;;;;;;;;;;;;;14.48;72.50;97050.25;30001;982;1876;-59
2021/09/05 01:53:10;;;;;;;;;;;;;;;14.48;72.81;97044.00;30001;982;1880;-59
2021/09/05 01:53:41;;;;;;;;;;;;;;;14.48;72.36;97054.91;30001;982;1876;-60
2021/09/05 01:54:12;;;;;;;;;;;;;;;14.48;72.71;97050.25;30001;983;1879;-59
2021/09/05 01:54:44;;;;;;;;;;;;;;;14.48;72.53;97050.25;30001;983;1857;-59
2021/09/05 01:55:15;;;;;;;;;;;;;;;14.47;72.75;97054.09;30001;983;1875;-60
2021/09/05 01:55:47;;;;;;;;;;;;;;;14.46;72.82;97049.75;30001;983;1875;-60
2021/09/05 01:56:18;;;;;;;;;;;;;;;14.45;72.47;97045.41;30001;983;1879;-60
2021/09/05 01:56:49;;;;;;;;;;;;;;;14.44;72.32;97054.72;30001;983;1858;-59
2021/09/05 01:57:20;;;;;;;;;;;;;;;14.43;72.83;97057.78;30001;983;1875;-60
2021/09/05 01:57:51;;;;;;;;;;;;;;;14.41;72.70;97056.16;30001;983;1875;-59
2021/09/05 01:58:24;;;;;;;;;;;;;;;14.40;72.90;97048.25;30001;982;1880;-60
2021/09/05 01:58:59;;;;;;;;;;;;;;;14.40;72.96;97053.72;30001;985;1875;-60
2021/09/05 01:59:30;;;;;;;;;;;;;;;14.39;72.86;97052.91;30001;982;1880;-60
2021/09/05 02:00:01;;;;;;;;;;;;;;;14.38;72.80;97051.28;30001;982;1876;-60
2021/09/05 02:00:32;;;;;;;;;;;;;;;14.38;73.16;97055.94;30001;982;1880;-60
2021/09/05 02:01:03;;;;;;;;;;;;;;;14.37;73.00;97054.34;30001;983;1875;-59
2021/09/05 02:01:34;;;;;;;;;;;;;;;14.37;72.82;97054.34;30001;983;1879;-60
2021/09/05 02:02:05;;;;;;;;;;;;;;;14.36;73.32;97053.53;30001;983;1857;-60
2021/09/05 02:02:36;;;;;;;;;;;;;;;14.36;73.33;97055.44;30001;983;1875;-59
2021/09/05 02:03:07;;;;;;;;;;;;;;;14.36;73.33;97055.44;30001;983;1875;-60
2021/09/05 02:03:38;;;;;;;;;;;;;;;14.36;73.34;97052.72;30001;983;1879;-60
2021/09/05 02:04:09;;;;;;;;;;;;;;;14.34;73.50;97053.03;30001;983;1858;-60
2021/09/05 02:04:40;;;;;;;;;;;;;;;14.35;73.13;97056.56;30001;983;1875;-60
2021/09/05 02:05:11;;;;;;;;;;;;;;;14.34;73.55;97050.31;30001;983;1875;-60
2021/09/05 02:05:42;;;;;;;;;;;;;;;14.36;73.45;97061.72;30001;983;1880;-59
2021/09/05 02:06:13;;;;;;;;;;;;;;;14.36;73.31;97058.97;30001;973;1893;-60
2021/09/05 02:06:43;;;;;;;;;;;;;;;14.35;73.64;97054.62;30001;982;1880;-61
2021/09/05 02:07:14;;;;;;;;;;;;;;;14.35;73.31;97057.38;30001;982;1876;-59
2021/09/05 02:07:45;;;;;;;;;;;;;;;14.36;73.55;97055.44;30001;982;1880;-59
2021/09/05 02:08:17;;;;;;;;;;;;;;;14.35;73.16;97051.09;30001;982;1858;-60
2021/09/05 02:08:48;;;;;;;;;;;;;;;14.33;73.39;97058.81;30001;983;1875;-65
2021/09/05 02:09:19;;;;;;;;;;;;;;;14.33;73.20;97064.25;30001;983;1875;-60
2021/09/05 02:09:50;;;;;;;;;;;;;;;14.33;73.15;97058.81;30001;983;1879;-60
2021/09/05 02:10:21;;;;;;;;;;;;;;;14.32;73.59;97062.66;30001;983;1875;-59
2021/09/05 02:10:52;;;;;;;;;;;;;;;14.33;73.59;97064.25;30001;983;1862;-59
2021/09/05 02:11:24;;;;;;;;;;;;;;;14.34;73.45;97060.41;30001;983;1853;-60
2021/09/05 02:11:55;;;;;;;;;;;;;;;14.35;73.64;97062.03;30001;983;1880;-59
2021/09/05 02:12:27;;;;;;;;;;;;;;;14.34;73.63;97063.16;30001;983;1875;-61
2021/09/05 02:12:57;;;;;;;;;;;;;;;14.35;73.42;97059.28;30001;983;1880;-59
2021/09/05 02:13:28;;;;;;;;;;;;;;;14.35;73.77;97062.03;30001;982;1875;-59
2021/09/05 02:13:59;;;;;;;;;;;;;;;14.34;73.45;97063.16;30001;982;1880;-59
2021/09/05 02:14:30;;;;;;;;;;;;;;;14.36;73.62;97063.62;30001;982;1876;-59
2021/09/05 02:15:01;;;;;;;;;;;;;;;14.36;73.73;97060.91;30001;982;1880;-60
2021/09/05 02:15:32;;;;;;;;;;;;;;;14.35;73.69;97059.28;30001;982;1876;-59
2021/09/05 02:16:03;;;;;;;;;;;;;;;14.35;73.71;97068.28;30001;983;1862;-60
2021/09/05 02:16:34;;;;;;;;;;;;;;;14.34;73.44;97063.94;30001;983;1853;-59
2021/09/05 02:17:05;;;;;;;;;;;;;;;14.34;73.62;97063.94;30001;983;1879;-60
2021/09/05 02:17:36;;;;;;;;;;;;;;;14.33;73.67;97064.25;30001;983;1875;-59
2021/09/05 02:18:06;;;;;;;;;;;;;;;14.32;73.49;97066.19;30001;983;1879;-59
2021/09/05 02:18:37;;;;;;;;;;;;;;;14.33;73.89;97067.00;30001;983;1875;-59
2021/09/05 02:19:08;;;;;;;;;;;;;;;14.33;73.70;97064.25;30001;983;1749;-60
2021/09/05 02:19:39;;;;;;;;;;;;;;;14.32;74.02;97068.09;30001;983;1871;-59
2021/09/05 02:20:11;;;;;;;;;;;;;;;14.29;73.64;97069.53;30001;983;1880;-60
2021/09/05 02:20:42;;;;;;;;;;;;;;;14.28;73.89;97061.66;30001;983;1875;-61
2021/09/05 02:21:13;;;;;;;;;;;;;;;14.26;74.58;97069.34;30001;982;1880;-61
2021/09/05 02:21:44;;;;;;;;;;;;;;;14.24;74.66;97066.13;30001;982;1875;-58
2021/09/05 02:22:19;;;;;;;;;;;;;;;14.22;74.92;97068.34;30001;982;1862;-60
2021/09/05 02:22:50;;;;;;;;;;;;;;;14.18;75.46;97068.19;30001;982;1768;-59
2021/09/05 02:23:20;;;;;;;;;;;;;;;14.15;75.17;97074.28;30001;982;1880;-59
2021/09/05 02:23:51;;;;;;;;;;;;;;;14.14;75.27;97069.13;30001;983;1875;-60
2021/09/05 02:24:22;;;;;;;;;;;;;;;14.14;74.95;97060.94;30001;983;1862;-60
2021/09/05 02:24:53;;;;;;;;;;;;;;;14.13;74.99;97056.59;30001;983;1871;-60
2021/09/05 02:25:24;;;;;;;;;;;;;;;14.12;75.08;97061.25;30001;983;1879;-60
2021/09/05 02:25:55;;;;;;;;;;;;;;;14.11;75.14;97058.84;30001;983;1875;-60
2021/09/05 02:26:26;;;;;;;;;;;;;;;14.09;74.93;97062.69;30001;983;1862;-61
2021/09/05 02:26:57;;;;;;;;;;;;;;;14.08;74.98;97069.25;30001;983;1871;-60
2021/09/05 02:27:27;;;;;;;;;;;;;;;14.08;74.67;97061.06;30001;983;1880;-60
2021/09/05 02:27:58;;;;;;;;;;;;;;;14.09;75.07;97070.06;30001;982;1875;-61
2021/09/05 02:28:29;;;;;;;;;;;;;;;14.07;75.07;97067.66;30001;982;1880;-59
2021/09/05 02:29:00;;;;;;;;;;;;;;;14.07;74.94;97073.09;30001;982;1876;-60
2021/09/05 02:29:31;;;;;;;;;;;;;;;14.07;74.86;97067.66;30001;982;1880;-60
2021/09/05 02:30:03;;;;;;;;;;;;;;;14.07;74.91;97067.66;30001;982;1858;-59
2021/09/05 02:30:35;;;;;;;;;;;;;;;14.07;74.94;97067.66;30001;982;1876;-60
2021/09/05 02:31:06;;;;;;;;;;;;;;;14.08;75.29;97069.25;30001;983;1875;-59
2021/09/05 02:31:36;;;;;;;;;;;;;;;14.09;75.21;97070.06;30001;983;1879;-59
2021/09/05 02:32:08;;;;;;;;;;;;;;;14.08;75.26;97073.91;30001;983;1875;-60
2021/09/05 02:32:39;;;;;;;;;;;;;;;14.07;75.44;97070.38;30001;983;1879;-58
2021/09/05 02:33:10;;;;;;;;;;;;;;;14.06;75.15;97074.22;30001;983;1875;-64
2021/09/05 02:33:41;;;;;;;;;;;;;;;14.06;75.26;97076.94;30001;983;1880;-59
2021/09/05 02:34:11;;;;;;;;;;;;;;;14.02;75.15;97070.50;30002;983;1875;-60
2021/09/05 02:34:42;;;;;;;;;;;;;;;14.03;75.34;97072.09;30002;983;1880;-59
2021/09/05 02:35:13;;;;;;;;;;;;;;;14.03;75.80;97069.38;30001;982;1858;-58
2021/09/05 02:35:44;;;;;;;;;;;;;;;14.02;75.67;97075.13;30002;982;1875;-60
2021/09/05 02:36:15;;;;;;;;;;;;;;;14.01;75.50;97068.06;30002;982;1876;-60
2021/09/05 02:36:46;;;;;;;;;;;;;;;14.00;75.89;97078.19;30002;982;1880;-59
2021/09/05 02:37:17;;;;;;;;;;;;;;;13.99;75.33;97071.09;30002;982;1876;-59
2021/09/05 02:37:48;;;;;;;;;;;;;;;14.01;75.72;97074.34;30002;982;1880;-59
2021/09/05 02:38:18;;;;;;;;;;;;;;;14.01;75.66;97071.59;30003;816;1014;-59
2021/09/05 02:38:49;;;;;;;;;;;;;;;14.02;75.38;97070.50;30002;983;1879;-59
2021/09/05 02:39:20;;;;;;;;;;;;;;;14.03;75.57;97074.03;30002;983;1875;-58
2021/09/05 02:39:51;;;;;;;;;;;;;;;14.02;75.51;97075.94;30002;983;1879;-60
2021/09/05 02:40:22;;;;;;;;;;;;;;;14.01;75.33;97074.34;30002;983;1857;-60
2021/09/05 02:40:53;;;;;;;;;;;;;;;14.02;75.50;97075.13;30002;983;1875;-60
2021/09/05 02:41:24;;;;;;;;;;;;;;;14.03;75.68;97071.31;30002;983;1875;-59
2021/09/05 02:41:55;;;;;;;;;;;;;;;14.03;75.74;97082.22;30002;983;1879;-61
2021/09/05 02:42:25;;;;;;;;;;;;;;;14.03;75.44;97079.47;30002;983;1875;-60
2021/09/05 02:42:56;;;;;;;;;;;;;;;14.02;75.79;97073.22;30002;982;1862;-60
2021/09/05 02:43:27;;;;;;;;;;;;;;;14.02;75.56;97086.06;30002;982;1871;-60
2021/09/05 02:43:58;;;;;;;;;;;;;;;14.01;75.63;97079.78;30002;982;1880;-60
2021/09/05 02:44:29;;;;;;;;;;;;;;;14.00;75.32;97078.19;30002;982;1876;-60
2021/09/05 02:45:04;;;;;;;;;;;;;;;13.99;75.60;97076.56;30002;982;1880;-61
2021/09/05 02:45:35;;;;;;;;;;;;;;;13.98;75.43;97074.94;30002;982;1876;-60
2021/09/05 02:46:06;;;;;;;;;;;;;;;13.97;75.74;97073.34;30002;982;1880;-60
2021/09/05 02:46:37;;;;;;;;;;;;;;;13.98;75.38;97080.41;30002;983;1857;-59
2021/09/05 02:47:08;;;;;;;;;;;;;;;13.98;75.79;97080.41;30002;970;1895;-60
2021/09/05 02:47:39;;;;;;;;;;;;;;;13.98;75.72;97082.34;30002;983;1875;-60